createdAt,value
2019-01-17T00:01:32.041Z,10.30
2019-01-17T00:04:26.316Z,10.20
2019-01-17T00:07:16.407Z,10.20
2019-01-17T00:10:10.696Z,10.20
2019-01-17T00:12:59.800Z,10.20
2019-01-17T00:15:51.011Z,10.20
2019-01-17T00:18:49.886Z,10.10
2019-01-17T00:22:29.400Z,10.10
2019-01-17T00:26:14.868Z,10.10
2019-01-17T00:29:18.405Z,10.00
2019-01-17T00:33:04.681Z,9.90
2019-01-17T00:35:55.019Z,9.80
2019-01-17T00:39:01.975Z,9.60
2019-01-17T00:41:56.779Z,9.50
2019-01-17T00:44:51.464Z,9.40
2019-01-17T00:47:45.206Z,9.60
2019-01-17T00:50:52.667Z,9.60
2019-01-17T00:53:35.051Z,9.60
2019-01-17T00:56:25.829Z,9.60
2019-01-17T00:59:30.146Z,9.50
2019-01-17T01:02:19.039Z,9.40
2019-01-17T01:05:08.523Z,9.30
2019-01-17T01:11:32.992Z,9.20
2019-01-17T01:14:36.965Z,9.20
2019-01-17T01:17:46.670Z,9.10
2019-01-17T01:20:49.434Z,9.00
2019-01-17T01:23:47.099Z,8.90
2019-01-17T01:26:40.327Z,9.00
2019-01-17T01:29:42.574Z,9.00
2019-01-17T01:32:42.098Z,9.00
2019-01-17T01:35:34.436Z,8.90
2019-01-17T01:38:41.980Z,8.90
2019-01-17T01:41:37.687Z,8.90
2019-01-17T01:44:30.402Z,8.70
2019-01-17T01:47:15.957Z,8.60
2019-01-17T01:50:21.982Z,8.60
2019-01-17T01:53:13.385Z,8.60
2019-01-17T01:55:50.653Z,8.60
2019-01-17T01:58:26.330Z,8.70
2019-01-17T02:01:03.592Z,8.70
2019-01-17T02:03:38.789Z,8.80
2019-01-17T02:06:14.638Z,8.80
2019-01-17T02:08:48.387Z,8.80
2019-01-17T02:11:22.959Z,8.80
2019-01-17T02:14:00.222Z,8.80
2019-01-17T02:16:35.430Z,8.80
2019-01-17T02:19:09.964Z,8.80
2019-01-17T02:21:44.578Z,8.70
2019-01-17T02:24:28.365Z,8.70
2019-01-17T02:27:00.302Z,8.60
2019-01-17T02:29:36.774Z,8.60
2019-01-17T02:32:11.094Z,8.60
2019-01-17T02:34:45.418Z,8.50
2019-01-17T02:37:21.602Z,8.60
2019-01-17T02:39:55.633Z,8.60
2019-01-17T02:42:32.678Z,8.60
2019-01-17T02:45:09.894Z,8.60
2019-01-17T02:47:44.782Z,8.60
2019-01-17T02:50:21.468Z,8.50
2019-01-17T02:52:56.184Z,8.60
2019-01-17T02:55:32.603Z,8.60
2019-01-17T02:58:06.152Z,8.50
2019-01-17T03:00:41.531Z,8.50
2019-01-17T03:03:18.420Z,8.50
2019-01-17T03:05:53.816Z,8.50
2019-01-17T03:08:32.278Z,8.60
2019-01-17T03:11:12.993Z,8.60
2019-01-17T03:13:47.105Z,8.60
2019-01-17T03:16:25.548Z,8.60
2019-01-17T03:19:02.426Z,8.60
2019-01-17T03:21:39.033Z,8.50
2019-01-17T03:24:17.580Z,8.60
2019-01-17T03:26:54.752Z,8.60
2019-01-17T03:29:33.627Z,8.60
2019-01-17T03:32:09.394Z,8.60
2019-01-17T03:34:43.791Z,8.70
2019-01-17T03:37:20.241Z,8.70
2019-01-17T03:40:01.001Z,8.70
2019-01-17T03:42:36.516Z,8.80
2019-01-17T03:45:12.083Z,8.90
2019-01-17T03:47:47.206Z,9.00
2019-01-17T03:50:22.235Z,9.10
2019-01-17T03:52:58.772Z,9.10
2019-01-17T03:55:35.597Z,9.10
2019-01-17T03:58:10.305Z,9.10
2019-01-17T04:00:44.508Z,9.10
2019-01-17T04:03:19.702Z,9.30
2019-01-17T04:05:54.294Z,9.50
2019-01-17T04:08:28.866Z,9.50
2019-01-17T04:11:04.363Z,9.60
2019-01-17T04:13:47.061Z,9.60
2019-01-17T04:16:23.550Z,9.70
2019-01-17T04:18:57.868Z,9.60
2019-01-17T04:21:46.077Z,9.60
2019-01-17T04:24:21.654Z,9.60
2019-01-17T04:26:59.696Z,9.70
2019-01-17T04:29:33.537Z,9.60
2019-01-17T04:32:13.317Z,9.60
2019-01-17T04:34:47.155Z,9.70
2019-01-17T04:37:21.606Z,9.70
2019-01-17T04:39:57.714Z,9.80
2019-01-17T04:42:37.716Z,9.90
2019-01-17T04:45:13.312Z,9.90
2019-01-17T04:47:52.086Z,10.00
2019-01-17T04:50:27.662Z,10.10
2019-01-17T04:53:06.601Z,10.20
2019-01-17T04:55:46.226Z,10.30
2019-01-17T04:58:21.569Z,10.30
2019-01-17T05:00:56.105Z,10.30
2019-01-17T05:03:30.373Z,10.30
2019-01-17T05:06:10.402Z,10.30
2019-01-17T05:08:44.386Z,10.40
2019-01-17T05:11:21.698Z,10.30
2019-01-17T05:13:56.918Z,10.40
2019-01-17T05:16:34.494Z,10.50
2019-01-17T05:19:08.756Z,10.50
2019-01-17T05:21:43.778Z,10.60
2019-01-17T05:24:20.150Z,10.60
2019-01-17T05:26:55.452Z,10.50
2019-01-17T05:29:32.665Z,10.60
2019-01-17T05:32:07.291Z,10.60
2019-01-17T05:34:41.558Z,10.60
2019-01-17T05:37:17.307Z,10.60
2019-01-17T05:39:53.948Z,10.60
2019-01-17T05:42:28.554Z,10.70
2019-01-17T05:45:04.646Z,10.80
2019-01-17T05:47:40.094Z,10.70
2019-01-17T05:50:16.637Z,10.90
2019-01-17T05:52:52.229Z,10.80
2019-01-17T05:55:27.786Z,10.80
2019-01-17T05:58:03.754Z,10.90
2019-01-17T06:00:41.100Z,10.80
2019-01-17T06:03:16.822Z,10.80
2019-01-17T06:05:53.203Z,10.70
2019-01-17T06:08:34.733Z,10.80
2019-01-17T06:11:26.450Z,10.90
2019-01-17T06:14:18.970Z,10.90
2019-01-17T06:16:57.358Z,10.80
2019-01-17T06:19:36.445Z,10.70
2019-01-17T06:22:10.193Z,10.70
2019-01-17T06:24:54.749Z,10.60
2019-01-17T06:27:31.519Z,10.70
2019-01-17T06:30:10.043Z,10.70
2019-01-17T06:32:46.943Z,10.70
2019-01-17T06:35:24.081Z,10.80
2019-01-17T06:38:22.910Z,10.70
2019-01-17T06:41:02.042Z,10.80
2019-01-17T06:43:37.680Z,10.80
2019-01-17T06:46:12.106Z,10.60
2019-01-17T06:48:46.073Z,10.60
2019-01-17T06:51:22.529Z,10.50
2019-01-17T06:54:00.025Z,10.70
2019-01-17T06:56:43.810Z,10.80
2019-01-17T06:59:19.873Z,10.80
2019-01-17T07:01:56.117Z,10.70
2019-01-17T07:04:32.257Z,10.60
2019-01-17T07:07:08.145Z,10.60
2019-01-17T07:09:42.200Z,10.70
2019-01-17T07:12:17.637Z,10.60
2019-01-17T07:14:52.493Z,10.80
2019-01-17T07:17:26.377Z,10.80
2019-01-17T07:20:05.153Z,10.80
2019-01-17T07:22:44.367Z,10.80
2019-01-17T07:25:18.404Z,10.70
2019-01-17T07:27:57.978Z,10.70
2019-01-17T07:30:36.909Z,10.60
2019-01-17T07:33:14.269Z,10.50
2019-01-17T07:35:51.610Z,10.50
2019-01-17T07:38:27.968Z,10.60
2019-01-17T07:41:05.168Z,10.70
2019-01-17T07:43:43.549Z,10.60
2019-01-17T07:46:21.182Z,10.50
2019-01-17T07:48:59.482Z,10.70
2019-01-17T07:51:36.751Z,10.80
2019-01-17T07:54:13.100Z,10.90
2019-01-17T07:56:50.453Z,10.80
2019-01-17T07:59:27.987Z,10.90
2019-01-17T08:02:04.132Z,10.90
2019-01-17T08:04:45.274Z,10.90
2019-01-17T08:07:22.825Z,10.80
2019-01-17T08:09:57.831Z,10.80
2019-01-17T08:12:34.582Z,10.60
2019-01-17T08:15:16.157Z,10.50
2019-01-17T08:17:53.174Z,10.40
2019-01-17T08:20:31.935Z,10.40
2019-01-17T08:23:05.874Z,10.30
2019-01-17T08:25:58.241Z,10.30
2019-01-17T08:28:34.490Z,10.30
2019-01-17T08:31:09.793Z,10.30
2019-01-17T08:33:45.777Z,10.20
2019-01-17T08:36:20.591Z,10.20
2019-01-17T08:38:54.816Z,10.20
2019-01-17T08:41:30.839Z,10.20
2019-01-17T08:44:09.451Z,10.20
2019-01-17T08:46:45.866Z,10.30
2019-01-17T08:49:23.064Z,10.20
2019-01-17T08:51:58.163Z,10.20
2019-01-17T08:54:33.680Z,10.20
2019-01-17T08:57:09.918Z,10.10
2019-01-17T08:59:45.655Z,10.10
2019-01-17T09:02:23.425Z,10.10
2019-01-17T09:04:59.569Z,10.20
2019-01-17T09:07:34.405Z,10.20
2019-01-17T09:10:10.851Z,10.50
2019-01-17T09:12:44.952Z,10.60
2019-01-17T09:15:20.917Z,10.60
2019-01-17T09:17:56.756Z,10.60
2019-01-17T09:20:30.660Z,10.60
2019-01-17T09:23:10.088Z,10.60
2019-01-17T09:25:46.168Z,10.40
2019-01-17T09:28:20.702Z,10.40
2019-01-17T09:30:57.347Z,10.30
2019-01-17T09:33:31.469Z,10.30
2019-01-17T09:36:25.831Z,10.20
2019-01-17T09:38:59.833Z,10.20
2019-01-17T09:41:34.831Z,10.10
2019-01-17T09:44:12.425Z,10.10
2019-01-17T09:46:50.436Z,10.00
2019-01-17T09:49:25.309Z,9.90
2019-01-17T09:51:59.966Z,9.80
2019-01-17T09:54:36.783Z,9.80
2019-01-17T09:57:11.182Z,9.70
2019-01-17T09:59:46.336Z,9.60
2019-01-17T10:02:20.422Z,9.50
2019-01-17T10:04:57.363Z,9.40
2019-01-17T10:07:32.031Z,9.20
2019-01-17T10:10:08.048Z,9.10
2019-01-17T10:12:47.717Z,8.90
2019-01-17T10:15:39.078Z,8.80
2019-01-17T10:18:40.534Z,8.70
2019-01-17T10:22:03.559Z,8.60
2019-01-17T10:25:10.928Z,8.50
2019-01-17T10:28:36.585Z,8.40
2019-01-17T10:32:00.965Z,8.30
2019-01-17T10:35:20.768Z,8.20
2019-01-17T10:38:10.873Z,8.00
2019-01-17T10:41:33.262Z,8.00
2019-01-17T10:44:39.817Z,8.00
2019-01-17T10:48:06.597Z,7.90
2019-01-17T10:51:21.376Z,7.80
2019-01-17T10:54:17.136Z,7.80
2019-01-17T10:57:47.840Z,7.80
2019-01-17T11:01:12.095Z,7.70
2019-01-17T11:04:37.877Z,7.50
2019-01-17T11:07:36.487Z,7.50
2019-01-17T11:10:25.719Z,7.50
2019-01-17T11:13:29.025Z,7.40
2019-01-17T11:16:36.822Z,7.40
2019-01-17T11:20:04.630Z,7.30
2019-01-17T11:23:13.217Z,7.30
2019-01-17T11:26:22.502Z,7.30
2019-01-17T11:29:20.230Z,7.20
2019-01-17T11:32:16.493Z,7.20
2019-01-17T11:35:36.105Z,7.20
2019-01-17T11:38:25.976Z,7.20
2019-01-17T11:41:49.598Z,7.20
2019-01-17T11:45:07.564Z,7.20
2019-01-17T11:48:24.970Z,7.20
2019-01-17T11:51:32.167Z,7.20
2019-01-17T11:54:51.749Z,7.20
2019-01-17T11:58:12.170Z,7.20
2019-01-17T12:01:26.622Z,7.20
2019-01-17T12:04:41.721Z,7.10
2019-01-17T12:07:20.952Z,7.10
2019-01-17T12:09:54.862Z,7.20
2019-01-17T12:12:30.362Z,7.10
2019-01-17T12:15:04.376Z,7.10
2019-01-17T12:17:39.191Z,7.20
2019-01-17T12:20:14.447Z,7.20
2019-01-17T12:22:49.870Z,7.20
2019-01-17T12:25:24.793Z,7.20
2019-01-17T12:28:11.241Z,7.20
2019-01-17T12:30:46.477Z,7.30
2019-01-17T12:33:24.471Z,7.30
2019-01-17T12:35:58.524Z,7.30
2019-01-17T12:38:33.315Z,7.50
2019-01-17T12:41:07.312Z,7.50
2019-01-17T12:43:49.818Z,7.60
2019-01-17T12:46:25.138Z,7.60
2019-01-17T12:48:59.238Z,7.60
2019-01-17T12:51:33.290Z,7.60
2019-01-17T12:54:13.209Z,7.70
2019-01-17T12:56:54.179Z,7.60
2019-01-17T12:59:28.662Z,7.60
2019-01-17T13:02:03.186Z,7.60
2019-01-17T13:04:38.282Z,7.60
2019-01-17T13:07:12.101Z,7.70
2019-01-17T13:09:56.289Z,7.70
2019-01-17T13:12:31.509Z,7.80
2019-01-17T13:15:05.473Z,7.70
2019-01-17T13:17:42.477Z,7.70
2019-01-17T13:20:18.777Z,7.70
2019-01-17T13:22:59.497Z,7.70
2019-01-17T13:25:35.226Z,7.80
2019-01-17T13:28:11.513Z,7.80
2019-01-17T13:30:48.508Z,7.80
2019-01-17T13:33:22.603Z,7.80
2019-01-17T13:35:56.506Z,7.80
2019-01-17T13:38:31.455Z,7.90
2019-01-17T13:41:07.923Z,7.90
2019-01-17T13:43:42.397Z,7.90
2019-01-17T13:46:17.366Z,7.90
2019-01-17T13:48:52.058Z,7.90
2019-01-17T13:51:25.790Z,7.90
2019-01-17T13:54:01.210Z,8.00
2019-01-17T13:56:36.039Z,8.10
2019-01-17T13:59:13.430Z,8.10
2019-01-17T14:01:48.562Z,8.10
2019-01-17T14:04:22.851Z,8.20
2019-01-17T14:06:56.727Z,8.20
2019-01-17T14:09:30.476Z,8.10
2019-01-17T14:12:05.404Z,8.10
2019-01-17T14:14:41.282Z,8.20
2019-01-17T14:17:18.396Z,8.20
2019-01-17T14:19:56.123Z,8.20
2019-01-17T14:22:30.621Z,8.20
2019-01-17T14:25:05.969Z,8.20
2019-01-17T14:27:45.915Z,8.10
2019-01-17T14:30:26.533Z,8.10
2019-01-17T14:33:05.118Z,8.30
2019-01-17T14:35:39.637Z,8.30
2019-01-17T14:38:15.354Z,8.30
2019-01-17T14:40:50.258Z,8.30
2019-01-17T14:43:25.724Z,8.40
2019-01-17T14:46:01.771Z,8.40
2019-01-17T14:48:37.952Z,8.40
2019-01-17T14:51:12.601Z,8.40
2019-01-17T14:53:46.783Z,8.60
2019-01-17T14:56:21.795Z,8.60
2019-01-17T14:58:56.317Z,8.50
2019-01-17T15:01:40.565Z,8.60
2019-01-17T15:04:27.686Z,8.60
2019-01-17T15:07:06.132Z,8.50
2019-01-17T15:09:47.556Z,8.50
2019-01-17T15:12:22.640Z,8.50
2019-01-17T15:15:04.898Z,8.40
2019-01-17T15:17:39.009Z,8.40
2019-01-17T15:20:18.847Z,8.40
2019-01-17T15:22:54.796Z,8.40
2019-01-17T15:25:29.643Z,8.40
2019-01-17T15:28:05.832Z,8.40
2019-01-17T15:30:41.474Z,8.50
2019-01-17T15:33:17.429Z,8.50
2019-01-17T15:35:52.866Z,8.50
2019-01-17T15:38:28.813Z,8.50
2019-01-17T15:41:04.207Z,8.50
2019-01-17T15:43:38.899Z,8.50
2019-01-17T15:46:12.839Z,8.50
2019-01-17T15:48:46.688Z,8.50
2019-01-17T15:51:20.674Z,8.40
2019-01-17T15:53:57.674Z,8.40
2019-01-17T15:56:33.275Z,8.40
2019-01-17T15:59:08.539Z,8.40
2019-01-17T16:01:43.346Z,8.40
2019-01-17T16:04:17.869Z,8.50
2019-01-17T16:06:53.797Z,8.60
2019-01-17T16:09:28.355Z,8.60
2019-01-17T16:12:03.454Z,8.60
2019-01-17T16:14:39.564Z,8.70
2019-01-17T16:17:13.449Z,8.70
2019-01-17T16:19:47.947Z,8.70
2019-01-17T16:22:22.014Z,8.80
2019-01-17T16:25:00.495Z,8.90
2019-01-17T16:27:41.579Z,9.00
2019-01-17T16:30:23.165Z,9.00
2019-01-17T16:32:57.598Z,9.00
2019-01-17T16:35:35.301Z,9.00
2019-01-17T16:38:11.270Z,9.00
2019-01-17T16:40:46.799Z,9.10
2019-01-17T16:43:21.432Z,9.10
2019-01-17T16:46:00.129Z,9.10
2019-01-17T16:48:42.777Z,9.10
2019-01-17T16:55:15.135Z,9.20
2019-01-17T16:57:49.472Z,9.20
2019-01-17T17:00:38.452Z,9.20
2019-01-17T17:03:12.294Z,9.20
2019-01-17T17:05:46.267Z,9.10
2019-01-17T17:08:20.455Z,9.10
2019-01-17T17:10:54.491Z,9.10
2019-01-17T17:13:28.443Z,9.10
2019-01-17T17:16:02.877Z,9.10
2019-01-17T17:18:36.607Z,9.10
2019-01-17T17:21:11.184Z,9.10
2019-01-17T17:23:47.279Z,9.10
2019-01-17T17:26:23.629Z,9.10
2019-01-17T17:28:59.460Z,9.10
2019-01-17T17:31:37.204Z,9.10
2019-01-17T17:34:11.321Z,9.10
2019-01-17T17:36:45.469Z,9.10
2019-01-17T17:39:22.422Z,9.10
2019-01-17T17:41:58.080Z,9.10
2019-01-17T17:44:31.925Z,9.10
2019-01-17T17:47:06.530Z,9.10
2019-01-17T17:49:40.473Z,9.20
2019-01-17T17:52:16.139Z,9.30
2019-01-17T17:54:50.598Z,9.40
2019-01-17T17:57:24.357Z,9.50
2019-01-17T17:59:59.695Z,9.60
2019-01-17T18:02:39.618Z,9.60
2019-01-17T18:05:14.990Z,9.60
2019-01-17T18:07:49.082Z,9.60
2019-01-17T18:10:23.965Z,9.70
2019-01-17T18:12:59.712Z,9.70
2019-01-17T18:15:40.088Z,9.80
2019-01-17T18:18:27.003Z,9.90
2019-01-17T18:21:03.019Z,9.90
2019-01-17T18:23:43.502Z,9.90
2019-01-17T18:26:28.410Z,9.90
2019-01-17T18:29:01.740Z,9.60
2019-01-17T18:31:43.351Z,9.60
2019-01-17T18:34:19.320Z,9.60
2019-01-17T18:36:53.317Z,9.70
2019-01-17T18:39:27.187Z,9.70
2019-01-17T18:42:04.595Z,9.80
2019-01-17T18:44:41.851Z,9.80
2019-01-17T18:47:19.609Z,9.90
2019-01-17T18:49:56.209Z,9.90
2019-01-17T18:52:32.603Z,9.90
2019-01-17T18:55:18.149Z,10.00
2019-01-17T18:57:52.322Z,9.90
2019-01-17T19:00:31.342Z,9.90
2019-01-17T19:03:06.849Z,9.90
2019-01-17T19:05:42.702Z,9.90
2019-01-17T19:08:18.598Z,10.00
2019-01-17T19:10:58.723Z,10.10
2019-01-17T19:13:38.577Z,10.10
2019-01-17T19:16:13.017Z,10.20
2019-01-17T19:18:52.303Z,10.20
2019-01-17T19:21:26.272Z,10.30
2019-01-17T19:24:00.132Z,10.30
2019-01-17T19:26:35.055Z,10.30
2019-01-17T19:29:10.534Z,10.30
2019-01-17T19:31:45.237Z,10.30
2019-01-17T19:34:29.565Z,10.30
2019-01-17T19:37:07.435Z,10.30
2019-01-17T19:39:41.698Z,10.50
2019-01-17T19:42:16.367Z,10.50
2019-01-17T19:44:50.359Z,10.60
2019-01-17T19:47:24.213Z,10.70
2019-01-17T19:49:58.017Z,10.90
2019-01-17T19:52:33.123Z,11.00
2019-01-17T19:55:11.628Z,11.00
2019-01-17T19:57:45.524Z,11.10
2019-01-17T20:00:23.506Z,11.10
2019-01-17T20:02:57.347Z,11.20
2019-01-17T20:05:33.754Z,11.30
2019-01-17T20:08:20.595Z,11.50
2019-01-17T20:11:03.728Z,11.50
2019-01-17T20:13:38.878Z,11.60
2019-01-17T20:16:15.962Z,11.70
2019-01-17T20:18:49.848Z,11.70
2019-01-17T20:21:24.689Z,11.70
2019-01-17T20:23:59.902Z,11.70
2019-01-17T20:26:35.257Z,11.70
2019-01-17T20:29:10.553Z,11.70
2019-01-17T20:31:44.543Z,11.70
2019-01-17T20:34:22.381Z,11.70
2019-01-17T20:36:56.650Z,11.70
2019-01-17T20:39:32.330Z,11.70
2019-01-17T20:42:08.872Z,11.80
2019-01-17T20:44:42.708Z,11.70
2019-01-17T20:47:16.584Z,11.80
2019-01-17T20:49:51.279Z,11.70
2019-01-17T20:52:25.153Z,11.70
2019-01-17T20:54:59.902Z,11.60
2019-01-17T20:57:33.912Z,11.60
2019-01-17T21:00:12.771Z,11.60
2019-01-17T21:02:49.668Z,11.60
2019-01-17T21:05:25.062Z,11.70
2019-01-17T21:08:01.633Z,11.70
2019-01-17T21:10:35.594Z,11.80
2019-01-17T21:13:10.129Z,11.90
2019-01-17T21:15:43.943Z,11.90
2019-01-17T21:18:19.252Z,12.00
2019-01-17T21:20:53.937Z,12.10
2019-01-17T21:23:28.271Z,12.20
2019-01-17T21:26:04.509Z,12.10
2019-01-17T21:28:39.424Z,12.20
2019-01-17T21:31:18.736Z,12.20
2019-01-17T21:34:02.442Z,12.30
2019-01-17T21:36:39.309Z,12.30
2019-01-17T21:39:24.697Z,12.30
2019-01-17T21:42:00.531Z,12.40
2019-01-17T21:44:38.880Z,12.30
2019-01-17T21:47:13.685Z,12.30
2019-01-17T21:49:48.036Z,12.40
2019-01-17T21:52:24.483Z,12.40
2019-01-17T21:55:05.768Z,12.50
2019-01-17T21:57:43.758Z,12.50
2019-01-17T22:00:24.753Z,12.60
2019-01-17T22:02:58.357Z,12.70
2019-01-17T22:05:32.352Z,12.70
2019-01-17T22:11:06.144Z,12.80
2019-01-17T22:13:41.675Z,12.80
2019-01-17T22:16:16.633Z,12.80
2019-01-17T22:18:57.746Z,12.70
2019-01-17T22:21:32.734Z,12.60
2019-01-17T22:24:07.070Z,12.50
2019-01-17T22:26:47.765Z,12.50
2019-01-17T22:29:23.958Z,12.40
2019-01-17T22:31:58.972Z,12.30
2019-01-17T22:34:34.728Z,12.20
2019-01-17T22:37:09.533Z,12.30
2019-01-17T22:39:46.786Z,12.20
2019-01-17T22:42:23.707Z,12.10
2019-01-17T22:44:59.549Z,12.10
2019-01-17T22:47:33.304Z,12.10
2019-01-17T22:50:11.952Z,12.10
2019-01-17T22:52:45.369Z,12.00
2019-01-17T22:55:21.641Z,11.90
2019-01-17T22:57:55.522Z,11.90
2019-01-17T23:00:56.825Z,11.80
2019-01-17T23:03:40.814Z,11.90
2019-01-17T23:06:17.447Z,11.90
2019-01-17T23:08:51.359Z,11.80
2019-01-17T23:11:29.639Z,11.70
2019-01-17T23:14:02.336Z,11.80
2019-01-17T23:16:37.774Z,11.70
2019-01-17T23:19:11.930Z,11.70
2019-01-17T23:22:06.841Z,11.70
2019-01-17T23:24:43.378Z,11.80
2019-01-17T23:27:17.201Z,11.90
2019-01-17T23:29:55.854Z,11.90
2019-01-17T23:32:29.889Z,11.90
2019-01-17T23:35:06.898Z,11.90
2019-01-17T23:37:40.945Z,12.00
2019-01-17T23:40:17.156Z,11.90
2019-01-17T23:42:53.233Z,11.90
2019-01-17T23:45:28.527Z,12.00
2019-01-17T23:48:04.030Z,11.90
2019-01-17T23:50:38.973Z,11.90
2019-01-17T23:53:14.103Z,11.80
2019-01-17T23:55:47.930Z,11.80
2019-01-17T23:58:22.747Z,11.80
